Time;durP1;ratioP1;P1;durP2;ratioP2;P2;SDS_P1;SDS_P2;PMS_P1;PMS_P2;Temp;Humidity;BMP_temperature;BMP_pressure;BME280_temperature;BME280_humidity;BME280_pressure;Samples;Min_cycle;Max_cycle;Signal;HPM_P1;HPM_P2
2023/08/10 00:02:17;;;;;;;4.20;1.40;;;22.40;93.60;;;;;;5035705;28;20210;-62
2023/08/10 00:04:45;;;;;;;1.33;1.27;;;22.30;93.60;;;;;;5036939;28;20257;-63
2023/08/10 00:07:12;;;;;;;3.37;1.50;;;22.30;93.60;;;;;;5046693;28;20194;-62
2023/08/10 00:09:39;;;;;;;2.70;1.57;;;22.30;94.00;;;;;;5040174;28;20219;-63
2023/08/10 00:12:06;;;;;;;4.77;1.40;;;22.30;93.80;;;;;;5039933;28;20211;-62
2023/08/10 00:14:33;;;;;;;2.23;1.20;;;22.30;93.80;;;;;;5045498;28;20200;-62
2023/08/10 00:17:00;;;;;;;3.70;1.30;;;22.30;93.70;;;;;;5039106;28;20213;-62
2023/08/10 00:19:27;;;;;;;6.67;1.83;;;22.30;93.60;;;;;;5038680;28;20211;-62
2023/08/10 00:21:54;;;;;;;2.17;1.67;;;22.30;93.50;;;;;;5048682;28;20211;-62
2023/08/10 00:24:21;;;;;;;3.63;1.23;;;22.20;93.50;;;;;;5032368;28;20226;-62
2023/08/10 00:26:48;;;;;;;2.80;1.60;;;22.20;93.70;;;;;;5042738;28;20587;-62
2023/08/10 00:29:16;;;;;;;5.70;1.77;;;22.10;93.90;;;;;;5042890;28;20229;-62
2023/08/10 00:31:43;;;;;;;2.23;1.70;;;22.10;93.90;;;;;;5040691;28;20202;-62
2023/08/10 00:34:10;;;;;;;4.77;1.70;;;22.00;94.00;;;;;;5044084;28;20203;-62
2023/08/10 00:36:37;;;;;;;1.80;1.60;;;22.00;94.20;;;;;;5042161;28;20543;-62
2023/08/10 00:39:05;;;;;;;2.57;1.77;;;22.00;94.30;;;;;;5046848;28;20206;-62
2023/08/10 00:41:31;;;;;;;3.53;2.13;;;22.00;94.40;;;;;;5043487;28;20202;-62
2023/08/10 00:43:58;;;;;;;2.03;1.70;;;22.00;94.40;;;;;;5042435;28;20227;-62
2023/08/10 00:46:26;;;;;;;5.83;2.50;;;22.00;94.50;;;;;;5044550;28;20233;-62
2023/08/10 00:48:53;;;;;;;3.07;1.90;;;22.00;94.50;;;;;;5042140;28;20218;-62
2023/08/10 00:51:22;;;;;;;2.50;2.17;;;22.00;94.60;;;;;;5050796;28;20229;-62
2023/08/10 00:53:49;;;;;;;3.50;2.20;;;22.00;94.60;;;;;;5044299;28;20206;-62
2023/08/10 00:56:17;;;;;;;2.10;1.90;;;22.00;94.60;;;;;;5044075;28;20680;-63
2023/08/10 00:58:45;;;;;;;2.47;2.03;;;22.00;94.70;;;;;;5041847;28;20663;-63
2023/08/10 01:01:12;;;;;;;5.80;1.90;;;22.00;94.70;;;;;;5044522;28;20202;-63
2023/08/10 01:03:39;;;;;;;4.33;2.23;;;22.00;94.70;;;;;;5045605;28;20575;-62
2023/08/10 01:06:18;;;;;;;3.10;2.20;;;21.90;94.70;;;;;;5042918;28;20214;-62
2023/08/10 01:08:54;;;;;;;2.10;1.90;;;21.90;94.80;;;;;;5054492;28;20233;-62
2023/08/10 01:11:33;;;;;;;3.37;2.07;;;21.80;94.80;;;;;;5045941;28;20608;-62
2023/08/10 01:14:31;;;;;;;4.07;2.23;;;21.80;95.00;;;;;;5039286;28;20253;-63
2023/08/10 01:17:02;;;;;;;2.13;1.93;;;21.80;95.00;;;;;;5040830;28;20202;-62
2023/08/10 01:19:36;;;;;;;2.70;2.50;;;21.80;95.00;;;;;;5045979;28;20211;-62
2023/08/10 01:22:06;;;;;;;3.20;1.90;;;21.70;95.00;;;;;;5037797;28;20224;-62
2023/08/10 01:24:42;;;;;;;4.80;2.70;;;21.70;95.10;;;;;;5040264;28;20720;-62
2023/08/10 01:27:13;;;;;;;3.73;2.40;;;21.70;95.20;;;;;;5037655;28;20205;-63
2023/08/10 01:29:41;;;;;;;4.83;2.57;;;21.70;95.30;;;;;;5036155;28;20313;-62
2023/08/10 01:32:14;;;;;;;7.57;3.87;;;21.70;95.30;;;;;;5038400;28;20201;-62
2023/08/10 01:34:41;;;;;;;5.87;2.40;;;21.70;95.40;;;;;;5042581;28;20214;-63
2023/08/10 01:37:09;;;;;;;3.37;3.07;;;21.70;95.40;;;;;;5041337;28;20187;-62
2023/08/10 01:39:36;;;;;;;4.20;2.80;;;21.70;95.40;;;;;;5045474;28;20207;-62
2023/08/10 01:42:04;;;;;;;3.67;2.47;;;21.70;95.50;;;;;;5040763;28;20290;-62
2023/08/10 01:44:32;;;;;;;3.37;2.87;;;21.70;95.50;;;;;;5039171;28;20294;-63
2023/08/10 01:47:03;;;;;;;3.23;2.93;;;21.70;95.50;;;;;;5040601;28;20199;-62
2023/08/10 01:49:33;;;;;;;2.93;2.67;;;21.70;95.50;;;;;;5047612;28;20310;-62
2023/08/10 01:52:05;;;;;;;5.37;3.10;;;21.70;95.60;;;;;;5047320;28;20301;-62
2023/08/10 01:54:36;;;;;;;3.30;3.00;;;21.70;95.60;;;;;;5039226;28;20633;-62
2023/08/10 01:57:03;;;;;;;4.93;2.77;;;21.70;95.70;;;;;;5040719;28;20208;-62
2023/08/10 01:59:30;;;;;;;3.33;3.03;;;21.70;95.70;;;;;;5047881;28;20307;-62
2023/08/10 02:01:57;;;;;;;5.27;3.83;;;21.70;95.70;;;;;;5039372;28;20358;-62
2023/08/10 02:04:24;;;;;;;5.27;2.80;;;21.70;95.80;;;;;;5045908;28;20536;-62
2023/08/10 02:06:53;;;;;;;4.10;2.90;;;21.70;95.80;;;;;;5043563;28;20268;-62
2023/08/10 02:09:20;;;;;;;5.07;2.93;;;21.70;95.80;;;;;;5046713;28;20219;-62
2023/08/10 02:11:47;;;;;;;4.47;2.67;;;21.70;95.90;;;;;;5042546;28;20213;-62
2023/08/10 02:14:14;;;;;;;4.27;3.10;;;21.70;95.90;;;;;;5039324;28;20199;-62
2023/08/10 02:16:41;;;;;;;5.33;2.70;;;21.60;96.00;;;;;;5042392;28;20203;-62
2023/08/10 02:19:09;;;;;;;3.73;3.10;;;21.60;96.00;;;;;;5036437;28;20207;-62
2023/08/10 02:21:35;;;;;;;3.37;3.07;;;21.60;96.00;;;;;;5043685;28;20224;-62
2023/08/10 02:24:04;;;;;;;4.83;3.30;;;21.60;96.00;;;;;;5041064;28;20213;-62
2023/08/10 02:26:31;;;;;;;6.67;3.00;;;21.60;96.10;;;;;;5029914;28;20223;-62
2023/08/10 02:28:58;;;;;;;3.20;2.87;;;21.60;96.10;;;;;;5044007;28;20555;-62
2023/08/10 02:31:25;;;;;;;3.90;2.87;;;21.60;96.10;;;;;;5043007;28;20651;-63
2023/08/10 02:33:52;;;;;;;4.20;2.83;;;21.60;96.10;;;;;;5041010;28;20229;-62
2023/08/10 02:36:19;;;;;;;3.57;2.63;;;21.60;96.10;;;;;;5039281;28;20595;-62
2023/08/10 02:38:46;;;;;;;3.20;2.67;;;21.60;96.00;;;;;;5050404;28;20203;-62
2023/08/10 02:41:14;;;;;;;5.10;2.80;;;21.50;95.90;;;;;;5049684;28;20203;-62
2023/08/10 02:43:41;;;;;;;3.80;2.90;;;21.50;95.80;;;;;;5037414;28;20209;-62
2023/08/10 02:46:08;;;;;;;3.37;2.70;;;21.50;95.80;;;;;;5041118;28;20209;-62
2023/08/10 02:48:35;;;;;;;6.73;3.10;;;21.40;95.80;;;;;;5041325;28;20704;-62
2023/08/10 02:51:02;;;;;;;3.03;2.77;;;21.40;95.80;;;;;;5038374;28;20215;-62
2023/08/10 02:53:29;;;;;;;6.90;2.90;;;21.40;95.80;;;;;;5037450;28;20222;-62
2023/08/10 02:55:56;;;;;;;2.87;2.60;;;21.40;95.70;;;;;;5038631;28;20230;-63
2023/08/10 02:58:23;;;;;;;4.23;2.53;;;21.40;95.70;;;;;;5038714;28;20653;-62
2023/08/10 03:00:50;;;;;;;3.90;2.80;;;21.40;95.70;;;;;;5038380;28;20716;-62
2023/08/10 03:03:18;;;;;;;5.33;2.57;;;21.30;95.60;;;;;;5039565;28;20322;-62
2023/08/10 03:05:45;;;;;;;4.20;2.60;;;21.30;95.60;;;;;;5042795;28;20639;-62
2023/08/10 03:08:12;;;;;;;5.07;3.17;;;21.30;95.60;;;;;;5043880;28;20211;-63
2023/08/10 03:10:39;;;;;;;5.30;2.67;;;21.30;95.50;;;;;;5041304;28;20679;-62
2023/08/10 03:13:07;;;;;;;6.57;2.60;;;21.30;95.60;;;;;;5045333;28;20191;-62
2023/08/10 03:15:34;;;;;;;3.60;2.90;;;21.20;95.60;;;;;;5040879;28;20226;-62
2023/08/10 03:18:01;;;;;;;4.03;2.70;;;21.20;95.70;;;;;;5052867;28;20210;-62
2023/08/10 03:20:29;;;;;;;6.27;2.83;;;21.20;95.80;;;;;;5043136;28;20211;-62
2023/08/10 03:22:56;;;;;;;2.67;2.47;;;21.20;95.90;;;;;;5043332;28;20214;-62
2023/08/10 03:25:23;;;;;;;7.10;2.60;;;21.20;96.00;;;;;;5046744;28;20211;-62
2023/08/10 03:27:50;;;;;;;5.90;3.00;;;21.20;96.10;;;;;;5050925;28;20234;-62
2023/08/10 03:30:19;;;;;;;3.47;2.53;;;21.30;96.20;;;;;;5049239;28;20235;-62
2023/08/10 03:32:47;;;;;;;3.67;2.50;;;21.30;96.20;;;;;;5042662;28;20249;-63
2023/08/10 03:35:15;;;;;;;4.30;3.07;;;21.30;96.30;;;;;;5047232;28;20286;-62
2023/08/10 03:37:42;;;;;;;6.07;2.67;;;21.30;96.20;;;;;;5042703;28;20199;-63
2023/08/10 03:40:09;;;;;;;3.00;2.63;;;21.20;96.00;;;;;;5043528;28;20221;-63
2023/08/10 03:42:36;;;;;;;5.27;2.60;;;21.30;96.00;;;;;;5043922;28;20217;-62
2023/08/10 03:45:05;;;;;;;3.13;1.90;;;21.20;95.90;;;;;;5039000;28;20584;-62
2023/08/10 03:47:32;;;;;;;3.70;2.50;;;21.30;95.90;;;;;;5041021;28;20540;-62
2023/08/10 03:49:59;;;;;;;2.57;2.27;;;21.20;95.90;;;;;;5043188;28;20592;-63
2023/08/10 03:52:27;;;;;;;4.67;2.37;;;21.20;95.90;;;;;;5044360;28;20202;-63
2023/08/10 03:54:53;;;;;;;2.93;2.27;;;21.10;95.80;;;;;;5045568;28;20214;-62
2023/08/10 03:57:21;;;;;;;3.93;2.53;;;21.10;95.80;;;;;;5042728;28;20241;-62
2023/08/10 03:59:48;;;;;;;4.80;2.00;;;21.10;95.90;;;;;;5042500;28;20550;-62
2023/08/10 04:02:18;;;;;;;3.47;2.63;;;21.00;95.90;;;;;;5040546;28;20207;-62
2023/08/10 04:04:45;;;;;;;7.10;2.40;;;21.00;95.90;;;;;;5040991;28;20239;-62
2023/08/10 04:07:12;;;;;;;5.97;2.60;;;21.00;95.90;;;;;;5048635;28;20218;-62
2023/08/10 04:09:44;;;;;;;7.30;3.00;;;21.00;95.90;;;;;;5040614;28;20371;-62
2023/08/10 04:12:11;;;;;;;3.00;2.50;;;21.00;96.00;;;;;;5043724;28;20198;-62
2023/08/10 04:14:38;;;;;;;5.27;2.77;;;21.00;96.00;;;;;;5044872;28;20198;-62
2023/08/10 04:17:05;;;;;;;6.57;2.77;;;21.00;96.00;;;;;;5042332;28;20192;-62
2023/08/10 04:19:32;;;;;;;6.60;3.00;;;20.90;95.90;;;;;;5045084;28;20215;-62
2023/08/10 04:21:59;;;;;;;2.30;2.10;;;20.90;95.80;;;;;;5042936;28;20204;-62
2023/08/10 04:24:26;;;;;;;5.60;2.47;;;20.90;95.80;;;;;;5040215;28;20594;-62
2023/08/10 04:26:53;;;;;;;3.33;2.73;;;20.90;95.80;;;;;;5040081;28;20215;-62
2023/08/10 04:29:25;;;;;;;5.47;3.50;;;20.80;95.80;;;;;;5044991;28;20236;-62
2023/08/10 04:31:52;;;;;;;4.60;3.47;;;20.90;95.90;;;;;;5042441;28;20227;-62
2023/08/10 04:34:19;;;;;;;6.37;3.53;;;20.80;95.90;;;;;;5044766;28;20567;-62
2023/08/10 04:36:46;;;;;;;4.97;3.43;;;20.80;96.00;;;;;;5041332;28;20223;-63
2023/08/10 04:39:13;;;;;;;4.03;3.40;;;20.80;96.10;;;;;;5041058;28;20614;-62
2023/08/10 04:41:40;;;;;;;10.13;4.17;;;20.70;96.20;;;;;;5038518;28;20230;-62
2023/08/10 04:44:08;;;;;;;6.17;4.00;;;20.70;96.20;;;;;;5041580;28;20583;-62
2023/08/10 04:46:35;;;;;;;4.07;3.60;;;20.70;96.30;;;;;;5040714;28;20202;-62
2023/08/10 04:49:02;;;;;;;6.73;3.27;;;20.70;96.40;;;;;;5040715;28;20233;-62
2023/08/10 04:51:29;;;;;;;3.97;3.57;;;20.70;96.50;;;;;;5040777;28;20595;-62
2023/08/10 04:53:56;;;;;;;5.17;3.53;;;20.80;96.60;;;;;;5040459;28;20207;-62
2023/08/10 04:56:23;;;;;;;5.97;3.70;;;20.80;96.60;;;;;;5037668;28;20207;-62
2023/08/10 04:58:50;;;;;;;4.07;3.07;;;20.90;96.60;;;;;;5040271;28;20198;-61
2023/08/10 05:01:18;;;;;;;5.60;3.60;;;20.90;96.60;;;;;;5043920;28;20674;-61
2023/08/10 05:03:45;;;;;;;4.27;3.67;;;20.90;96.40;;;;;;5037108;28;20247;-60
2023/08/10 05:06:12;;;;;;;9.70;4.10;;;20.90;96.30;;;;;;5041374;28;20225;-63
2023/08/10 05:08:40;;;;;;;7.93;3.10;;;21.00;96.30;;;;;;5041462;28;20217;-62
2023/08/10 05:11:06;;;;;;;9.73;3.90;;;21.00;96.30;;;;;;5040959;28;20222;-62
2023/08/10 05:13:33;;;;;;;5.30;3.33;;;21.10;96.30;;;;;;5042737;28;20210;-62
2023/08/10 05:16:02;;;;;;;5.07;3.77;;;21.10;96.40;;;;;;5041993;28;20557;-60
2023/08/10 05:18:29;;;;;;;5.33;3.43;;;21.20;96.40;;;;;;5043141;28;20702;-60
2023/08/10 05:21:00;;;;;;;6.77;3.63;;;21.20;96.40;;;;;;5039736;28;20290;-59
2023/08/10 05:23:27;;;;;;;5.33;3.27;;;21.30;96.40;;;;;;5044048;28;20236;-62
2023/08/10 05:25:54;;;;;;;4.33;3.60;;;21.30;96.30;;;;;;5036507;28;20643;-62
2023/08/10 05:28:21;;;;;;;7.27;3.43;;;21.40;96.30;;;;;;5041976;28;20241;-62
2023/08/10 05:30:48;;;;;;;4.40;3.33;;;21.50;96.30;;;;;;5041535;28;20601;-62
2023/08/10 05:33:15;;;;;;;7.40;3.40;;;21.50;96.20;;;;;;5040271;28;20199;-64
2023/08/10 05:35:42;;;;;;;6.20;3.23;;;21.60;96.10;;;;;;5041407;28;20210;-64
2023/08/10 05:38:09;;;;;;;4.73;3.40;;;21.70;96.00;;;;;;5040272;28;20652;-64
2023/08/10 05:40:36;;;;;;;5.73;3.40;;;21.70;95.80;;;;;;5040017;28;20199;-63
2023/08/10 05:43:03;;;;;;;11.60;3.73;;;21.80;95.70;;;;;;5042801;28;20644;-64
2023/08/10 05:45:31;;;;;;;5.30;3.13;;;21.90;95.60;;;;;;5040685;28;20678;-64
2023/08/10 05:47:58;;;;;;;3.70;2.77;;;22.00;95.50;;;;;;5040368;28;20214;-63
2023/08/10 05:50:26;;;;;;;4.97;3.33;;;22.10;95.30;;;;;;5037281;28;20218;-64
2023/08/10 05:52:53;;;;;;;6.80;3.40;;;22.20;95.20;;;;;;5038888;28;20206;-64
2023/08/10 05:55:20;;;;;;;3.57;3.23;;;22.30;95.10;;;;;;5036515;28;20217;-64
2023/08/10 05:57:47;;;;;;;8.53;3.50;;;22.40;95.00;;;;;;5042397;28;20195;-64
2023/08/10 06:00:15;;;;;;;5.83;2.73;;;22.50;94.90;;;;;;5034871;28;20206;-63
2023/08/10 06:02:42;;;;;;;4.77;3.33;;;22.60;94.70;;;;;;5039827;28;20578;-64
2023/08/10 06:05:10;;;;;;;5.57;3.57;;;22.80;94.60;;;;;;5037034;28;20627;-63
2023/08/10 06:07:37;;;;;;;4.77;2.87;;;22.90;94.40;;;;;;5035787;28;20523;-64
2023/08/10 06:10:05;;;;;;;68.43;8.53;;;23.10;94.20;;;;;;5040118;28;20218;-63
2023/08/10 06:12:32;;;;;;;8.93;3.90;;;23.30;94.00;;;;;;5039970;28;20198;-63
2023/08/10 06:14:59;;;;;;;5.03;4.37;;;23.40;93.70;;;;;;5041361;28;20213;-64
2023/08/10 06:17:26;;;;;;;6.47;3.70;;;23.60;93.50;;;;;;5039221;28;20543;-64
2023/08/10 06:19:54;;;;;;;4.30;3.50;;;23.70;93.20;;;;;;5038733;28;20202;-64
2023/08/10 06:22:24;;;;;;;6.23;3.40;;;23.90;93.10;;;;;;5045144;28;20524;-64
2023/08/10 06:24:52;;;;;;;3.77;3.37;;;24.00;92.80;;;;;;5036100;28;20232;-64
2023/08/10 06:27:19;;;;;;;3.50;3.17;;;24.10;92.60;;;;;;5044305;28;20301;-63
2023/08/10 06:29:46;;;;;;;5.50;3.77;;;24.20;92.30;;;;;;5043419;28;20204;-64
2023/08/10 06:32:13;;;;;;;7.00;3.50;;;24.30;91.90;;;;;;5037509;28;20624;-62
2023/08/10 06:34:40;;;;;;;5.60;3.10;;;24.40;91.60;;;;;;5041921;28;20210;-63
2023/08/10 06:37:07;;;;;;;3.50;3.20;;;24.50;91.90;;;;;;5041395;28;20617;-62
2023/08/10 06:39:34;;;;;;;4.37;3.47;;;24.70;91.70;;;;;;5041930;28;20646;-63
2023/08/10 06:42:02;;;;;;;6.10;3.50;;;24.80;91.60;;;;;;5044785;28;20205;-63
2023/08/10 06:44:30;;;;;;;6.03;3.50;;;25.00;91.20;;;;;;5046003;28;20217;-61
2023/08/10 06:46:57;;;;;;;3.47;3.00;;;25.10;90.70;;;;;;5045694;28;20206;-61
2023/08/10 06:49:24;;;;;;;3.93;2.60;;;25.20;90.60;;;;;;5044234;28;20595;-61
2023/08/10 06:51:51;;;;;;;3.70;2.70;;;25.40;90.40;;;;;;5043288;28;20218;-63
2023/08/10 06:54:18;;;;;;;5.17;2.93;;;25.50;90.10;;;;;;5043150;28;20199;-61
2023/08/10 06:56:45;;;;;;;4.20;2.73;;;25.70;89.60;;;;;;5046288;28;20256;-63
2023/08/10 06:59:13;;;;;;;3.80;2.50;;;25.90;88.10;;;;;;5040741;28;20634;-63
2023/08/10 07:01:42;;;;;;;11.10;3.03;;;25.90;87.40;;;;;;5044728;28;20285;-63
2023/08/10 07:04:10;;;;;;;3.40;2.00;;;26.00;87.80;;;;;;5045393;28;20320;-63
2023/08/10 07:06:37;;;;;;;4.00;2.27;;;26.10;87.70;;;;;;5043547;28;20226;-63
2023/08/10 07:09:04;;;;;;;3.33;2.90;;;26.30;87.50;;;;;;5041319;28;20540;-63
2023/08/10 07:11:31;;;;;;;3.57;2.47;;;26.40;86.50;;;;;;5043442;28;20215;-62
2023/08/10 07:13:58;;;;;;;3.03;2.40;;;26.50;85.30;;;;;;5042291;28;20245;-63
2023/08/10 07:16:25;;;;;;;4.10;2.60;;;26.60;84.80;;;;;;5041570;28;20206;-62
2023/08/10 07:18:52;;;;;;;2.60;2.20;;;26.60;84.50;;;;;;5047747;28;20543;-63
2023/08/10 07:21:20;;;;;;;2.67;2.10;;;26.70;83.90;;;;;;5042435;28;20202;-63
2023/08/10 07:23:48;;;;;;;4.53;2.17;;;26.70;82.40;;;;;;5041433;28;20217;-63
2023/08/10 07:26:15;;;;;;;4.33;1.87;;;26.60;82.90;;;;;;5041784;28;20490;-63
2023/08/10 07:28:43;;;;;;;2.40;2.20;;;26.60;83.10;;;;;;5044321;28;20223;-63
2023/08/10 07:31:11;;;;;;;2.87;1.83;;;26.60;84.10;;;;;;5037087;28;20223;-62
2023/08/10 07:33:38;;;;;;;2.63;1.60;;;26.70;83.60;;;;;;5041469;28;20278;-63
2023/08/10 07:36:06;;;;;;;2.03;1.80;;;26.90;83.70;;;;;;5040288;28;20602;-63
2023/08/10 07:38:32;;;;;;;5.20;2.03;;;27.10;83.40;;;;;;5039830;28;20620;-63
2023/08/10 07:41:01;;;;;;;1.70;1.60;;;27.30;82.30;;;;;;5041302;28;20616;-63
2023/08/10 07:43:28;;;;;;;4.30;1.50;;;27.40;81.60;;;;;;5037580;28;20203;-62
2023/08/10 07:45:55;;;;;;;5.43;2.03;;;27.60;81.10;;;;;;5037582;28;20203;-61
2023/08/10 07:48:22;;;;;;;2.07;1.60;;;27.70;80.60;;;;;;5042854;28;20229;-62
2023/08/10 07:50:49;;;;;;;2.33;1.37;;;27.80;79.80;;;;;;5043213;28;20652;-63
2023/08/10 07:53:16;;;;;;;6.50;1.40;;;28.00;79.40;;;;;;5040901;28;20217;-63
2023/08/10 07:55:43;;;;;;;1.30;1.20;;;28.00;77.90;;;;;;5040986;28;20206;-63
2023/08/10 07:58:10;;;;;;;1.27;1.17;;;28.00;76.90;;;;;;5045464;28;20195;-63
2023/08/10 08:00:38;;;;;;;3.57;1.53;;;27.90;75.60;;;;;;5039733;28;20207;-63
2023/08/10 08:03:05;;;;;;;2.60;1.70;;;27.90;76.30;;;;;;5043654;28;20243;-62
2023/08/10 08:05:37;;;;;;;1.50;1.40;;;28.00;76.00;;;;;;5046320;28;20229;-62
2023/08/10 08:08:06;;;;;;;2.67;1.07;;;27.90;75.50;;;;;;5043542;28;20264;-63
2023/08/10 08:10:34;;;;;;;3.07;1.63;;;27.90;76.60;;;;;;5042995;28;20226;-63
2023/08/10 08:13:06;;;;;;;1.93;0.83;;;28.00;75.90;;;;;;5043685;28;20504;-63
2023/08/10 08:15:38;;;;;;;1.43;0.87;;;28.00;76.50;;;;;;5043221;28;20199;-63
2023/08/10 08:18:41;;;;;;;2.80;0.90;;;28.30;77.00;;;;;;5043069;28;20202;-62
2023/08/10 08:21:09;;;;;;;1.97;1.07;;;28.50;76.50;;;;;;5045173;28;20190;-62
2023/08/10 08:23:36;;;;;;;1.17;1.07;;;28.70;73.40;;;;;;5042885;28;20234;-63
2023/08/10 08:26:03;;;;;;;2.60;1.30;;;28.70;73.40;;;;;;5038983;28;20242;-60
2023/08/10 08:28:30;;;;;;;1.73;0.90;;;28.70;73.10;;;;;;5040683;28;20203;-60
2023/08/10 08:30:58;;;;;;;2.27;1.70;;;28.80;74.10;;;;;;5044836;28;20337;-60
2023/08/10 08:33:25;;;;;;;2.43;1.37;;;28.90;72.80;;;;;;5045203;28;20195;-61
2023/08/10 08:35:52;;;;;;;2.33;1.20;;;28.90;73.00;;;;;;5042235;28;20207;-60
2023/08/10 08:38:19;;;;;;;1.43;0.97;;;29.00;72.60;;;;;;5045362;28;20199;-61
2023/08/10 08:40:50;;;;;;;5.00;1.40;;;29.10;73.30;;;;;;5044591;28;20501;-61
2023/08/10 08:43:17;;;;;;;1.10;0.90;;;29.20;72.50;;;;;;5039119;28;20202;-61
2023/08/10 08:45:45;;;;;;;4.10;1.43;;;29.40;72.30;;;;;;5042225;28;20226;-60
2023/08/10 08:48:14;;;;;;;0.80;0.80;;;29.60;71.80;;;;;;5046259;28;20199;-60
2023/08/10 08:50:45;;;;;;;2.30;1.07;;;29.70;71.20;;;;;;5042571;28;20222;-61
2023/08/10 08:53:12;;;;;;;1.80;1.20;;;29.80;70.50;;;;;;5042299;28;20643;-60
2023/08/10 08:55:40;;;;;;;1.47;1.17;;;29.90;69.70;;;;;;5042272;28;20281;-61
2023/08/10 08:58:08;;;;;;;3.60;1.50;;;30.10;68.70;;;;;;5039463;28;20227;-61
2023/08/10 09:00:35;;;;;;;1.97;1.10;;;30.20;67.40;;;;;;5039812;28;20195;-60
2023/08/10 09:03:02;;;;;;;1.77;1.07;;;30.20;68.30;;;;;;5036638;28;20262;-61
2023/08/10 09:05:30;;;;;;;1.13;1.00;;;30.30;68.10;;;;;;5040361;28;20191;-61
2023/08/10 09:07:58;;;;;;;2.57;1.10;;;30.40;66.20;;;;;;5040098;28;20245;-61
2023/08/10 09:10:26;;;;;;;3.40;1.00;;;30.40;65.70;;;;;;5040724;28;20207;-61
2023/08/10 09:12:53;;;;;;;2.10;0.90;;;30.50;66.10;;;;;;5041277;28;20195;-61
2023/08/10 09:15:20;;;;;;;0.97;0.70;;;30.60;66.30;;;;;;5036464;28;20199;-61
2023/08/10 09:17:52;;;;;;;2.03;1.00;;;30.70;66.40;;;;;;5043595;28;20206;-61
2023/08/10 09:20:24;;;;;;;3.33;1.10;;;31.00;65.60;;;;;;5039835;28;20234;-61
2023/08/10 09:22:55;;;;;;;1.60;0.73;;;31.10;65.60;;;;;;5037831;28;20261;-61
2023/08/10 09:25:23;;;;;;;5.80;1.03;;;31.30;64.90;;;;;;5039445;28;20194;-61
2023/08/10 09:27:52;;;;;;;1.00;0.87;;;31.50;63.70;;;;;;5042545;28;20220;-63
2023/08/10 09:30:20;;;;;;;2.83;0.83;;;31.60;62.80;;;;;;5044227;28;20529;-61
2023/08/10 09:32:47;;;;;;;2.07;1.00;;;31.80;62.30;;;;;;5044172;28;20251;-61
2023/08/10 09:35:16;;;;;;;0.77;0.77;;;31.90;60.40;;;;;;5044133;28;20199;-61
2023/08/10 09:37:44;;;;;;;2.33;0.90;;;32.00;60.00;;;;;;5042689;28;20202;-61
2023/08/10 09:40:16;;;;;;;1.13;1.03;;;32.10;60.10;;;;;;5040670;28;20268;-61
2023/08/10 09:42:43;;;;;;;1.07;0.80;;;32.10;59.70;;;;;;5040908;28;20199;-61
2023/08/10 09:45:12;;;;;;;1.13;0.80;;;32.20;59.40;;;;;;5036987;28;20195;-60
2023/08/10 09:47:41;;;;;;;2.13;0.90;;;32.20;58.00;;;;;;5038775;28;20203;-61
2023/08/10 09:50:12;;;;;;;1.20;1.07;;;32.00;58.10;;;;;;5042888;28;20686;-62
2023/08/10 09:52:40;;;;;;;2.73;1.30;;;32.00;59.50;;;;;;5038780;28;20215;-63
2023/08/10 09:55:08;;;;;;;0.77;0.77;;;32.10;58.20;;;;;;5041828;28;20674;-63
2023/08/10 09:57:40;;;;;;;3.93;0.97;;;32.00;58.70;;;;;;5042595;28;20267;-60
2023/08/10 10:00:14;;;;;;;1.87;1.10;;;32.00;58.80;;;;;;5043708;28;20555;-61
2023/08/10 10:02:42;;;;;;;0.93;0.90;;;32.10;58.10;;;;;;5037266;28;20276;-61
2023/08/10 10:05:09;;;;;;;2.63;0.93;;;32.00;57.50;;;;;;5042886;28;20521;-61
2023/08/10 10:07:46;;;;;;;1.87;0.87;;;31.90;58.30;;;;;;5043134;28;20198;-60
2023/08/10 10:10:15;;;;;;;1.57;1.10;;;31.80;57.30;;;;;;5038785;28;20198;-61
2023/08/10 10:12:46;;;;;;;1.07;1.00;;;31.60;57.50;;;;;;5042513;28;20301;-62
2023/08/10 10:15:14;;;;;;;1.23;0.93;;;31.60;58.60;;;;;;5040877;28;20674;-61
2023/08/10 10:17:41;;;;;;;0.93;0.93;;;31.70;58.00;;;;;;5041237;28;20647;-61
2023/08/10 10:20:11;;;;;;;1.63;0.90;;;31.60;58.00;;;;;;5038301;28;20370;-62
2023/08/10 10:22:38;;;;;;;2.10;1.10;;;31.70;57.90;;;;;;5040997;28;20624;-61
2023/08/10 10:25:14;;;;;;;1.97;1.10;;;31.70;58.70;;;;;;5040069;28;20207;-61
2023/08/10 10:27:46;;;;;;;2.13;1.00;;;31.80;57.90;;;;;;5038840;28;20205;-61
2023/08/10 10:30:18;;;;;;;2.13;1.10;;;31.90;58.00;;;;;;5037861;28;20294;-61
2023/08/10 10:32:48;;;;;;;1.20;1.00;;;31.90;58.00;;;;;;5037756;28;20268;-61
2023/08/10 10:35:23;;;;;;;2.30;1.10;;;31.90;57.50;;;;;;5038878;28;20202;-61
2023/08/10 10:37:58;;;;;;;1.40;0.93;;;31.90;57.70;;;;;;5037093;28;20197;-61
2023/08/10 10:40:27;;;;;;;1.10;1.00;;;32.00;57.60;;;;;;5040933;28;20228;-60
2023/08/10 10:43:03;;;;;;;1.10;1.00;;;32.00;56.70;;;;;;5036206;28;20218;-61
2023/08/10 10:45:40;;;;;;;1.53;0.90;;;32.00;57.40;;;;;;5038166;28;20202;-60
2023/08/10 10:48:11;;;;;;;1.37;1.10;;;32.10;57.50;;;;;;5038679;28;20281;-61
2023/08/10 10:50:38;;;;;;;2.83;1.00;;;32.20;56.60;;;;;;5039575;28;20264;-61
2023/08/10 10:53:12;;;;;;;6.60;1.10;;;32.20;56.50;;;;;;5038431;28;20629;-61
2023/08/10 10:55:44;;;;;;;4.93;1.10;;;32.30;56.40;;;;;;5041873;28;20518;-61
2023/08/10 10:58:13;;;;;;;4.40;0.80;;;32.50;54.40;;;;;;5037365;28;20281;-60
2023/08/10 11:00:43;;;;;;;1.47;1.03;;;32.50;55.10;;;;;;5038804;28;20226;-63
2023/08/10 11:03:15;;;;;;;1.23;0.90;;;32.60;55.40;;;;;;5042250;28;20317;-63
2023/08/10 11:05:42;;;;;;;1.00;0.97;;;32.70;53.10;;;;;;5040730;28;20237;-61
2023/08/10 11:08:09;;;;;;;1.87;0.87;;;32.60;53.40;;;;;;5040947;28;20195;-63
2023/08/10 11:10:38;;;;;;;2.13;1.40;;;32.50;54.20;;;;;;5043932;28;20656;-61
2023/08/10 11:13:10;;;;;;;3.67;1.40;;;32.40;53.10;;;;;;5041739;28;20555;-62
2023/08/10 11:15:37;;;;;;;4.63;1.00;;;32.40;53.40;;;;;;5039326;28;20282;-61
2023/08/10 11:18:11;;;;;;;2.30;1.00;;;32.50;54.30;;;;;;5041664;28;20612;-63
2023/08/10 11:20:47;;;;;;;2.27;1.07;;;32.60;54.10;;;;;;5040399;28;20214;-61
2023/08/10 11:23:15;;;;;;;2.57;1.53;;;32.70;53.60;;;;;;5041524;28;20213;-61
2023/08/10 11:25:50;;;;;;;1.97;0.80;;;32.80;52.80;;;;;;5040038;28;20215;-61
2023/08/10 11:28:19;;;;;;;2.87;1.23;;;32.70;51.50;;;;;;5044432;28;20201;-61
2023/08/10 11:30:47;;;;;;;2.97;1.30;;;32.60;52.40;;;;;;5043804;28;20595;-61
2023/08/10 11:33:15;;;;;;;2.20;0.90;;;32.50;51.60;;;;;;5044444;28;20301;-61
2023/08/10 11:35:50;;;;;;;2.60;0.80;;;32.50;51.90;;;;;;5044550;28;20194;-61
2023/08/10 11:38:17;;;;;;;5.90;1.50;;;32.50;52.30;;;;;;5040455;28;20191;-61
2023/08/10 11:40:45;;;;;;;1.10;1.00;;;32.50;52.00;;;;;;5043277;28;20218;-61
2023/08/10 11:43:19;;;;;;;2.97;1.43;;;32.40;51.70;;;;;;5043255;28;20213;-61
2023/08/10 11:45:48;;;;;;;1.03;0.93;;;32.40;52.10;;;;;;5045559;28;20194;-61
2023/08/10 11:48:19;;;;;;;3.17;1.10;;;32.30;51.50;;;;;;5040608;28;20199;-61
2023/08/10 11:50:46;;;;;;;2.87;1.13;;;32.50;52.30;;;;;;5041575;28;20226;-61
2023/08/10 11:53:15;;;;;;;4.33;1.37;;;32.50;52.10;;;;;;5043118;28;20246;-61
2023/08/10 11:55:44;;;;;;;3.03;1.10;;;32.70;52.70;;;;;;5040740;28;20207;-61
2023/08/10 11:58:13;;;;;;;1.87;1.27;;;32.80;52.20;;;;;;5041091;28;20188;-61
2023/08/10 12:00:47;;;;;;;2.87;1.20;;;32.90;50.40;;;;;;5043922;28;21451;-61
2023/08/10 12:03:21;;;;;;;12.97;1.90;;;32.90;49.90;;;;;;5043380;28;20253;-61
2023/08/10 12:05:55;;;;;;;2.37;1.07;;;32.90;50.40;;;;;;5044868;28;20202;-61
2023/08/10 12:08:31;;;;;;;4.10;1.00;;;32.90;51.30;;;;;;5041086;28;20260;-61
2023/08/10 12:11:12;;;;;;;4.17;1.20;;;32.90;50.80;;;;;;5039922;28;20206;-61
2023/08/10 12:13:47;;;;;;;2.43;1.00;;;33.00;51.80;;;;;;5046048;28;20213;-61
2023/08/10 12:16:17;;;;;;;2.13;0.93;;;33.10;49.90;;;;;;5037230;28;20207;-61
2023/08/10 12:18:45;;;;;;;3.70;1.03;;;33.10;50.20;;;;;;5043583;28;20651;-61
2023/08/10 12:21:12;;;;;;;3.60;1.30;;;32.90;50.20;;;;;;5042182;28;20214;-61
2023/08/10 12:23:39;;;;;;;2.53;0.97;;;32.90;50.30;;;;;;5042492;28;20289;-61
2023/08/10 12:26:06;;;;;;;2.27;1.20;;;32.80;50.40;;;;;;5042580;28;20282;-61
2023/08/10 12:28:34;;;;;;;2.30;1.00;;;32.80;50.10;;;;;;5042641;28;20354;-61
2023/08/10 12:31:08;;;;;;;1.20;1.10;;;32.80;50.60;;;;;;5042392;28;20575;-61
2023/08/10 12:33:39;;;;;;;3.83;1.03;;;32.80;50.30;;;;;;5042958;28;20246;-61
2023/08/10 12:36:07;;;;;;;2.27;1.30;;;32.80;51.30;;;;;;5043289;28;20195;-61
2023/08/10 12:38:34;;;;;;;4.23;1.13;;;32.90;52.00;;;;;;5038097;28;20302;-61
2023/08/10 12:41:01;;;;;;;4.80;1.40;;;33.00;52.10;;;;;;5042613;28;20530;-61
2023/08/10 12:43:28;;;;;;;3.43;1.20;;;33.20;51.30;;;;;;5039136;28;20203;-61
2023/08/10 12:45:55;;;;;;;2.33;0.90;;;33.30;49.80;;;;;;5043166;28;20195;-61
2023/08/10 12:48:23;;;;;;;2.10;1.00;;;33.20;50.20;;;;;;5043499;28;20692;-61
2023/08/10 12:50:50;;;;;;;2.50;1.07;;;33.20;50.50;;;;;;5039091;28;20217;-61
2023/08/10 12:53:17;;;;;;;2.20;0.77;;;33.20;49.90;;;;;;5041673;28;20218;-61